Time,TemperatureF,DewpointF,PressureIn,WindDirection,WindDirectionDegrees,WindSpeedMPH,WindSpeedGustMPH,Humidity,HourlyPrecipIn,Conditions,Clouds,dailyrainin,SoftwareType,DateUTC
2013-01-03 00:03:00,38.0,37.0,30.15,North,0,0.0,0.0,97,0.00,,,0.08,,2013-01-03 05:03:00,
2013-01-03 00:12:00,38.0,37.0,30.15,North,0,0.0,0.0,97,0.00,,,0.08,,2013-01-03 05:12:00,
2013-01-03 00:23:00,38.0,37.0,30.15,North,0,0.0,0.0,97,0.00,,,0.08,,2013-01-03 05:23:00,
2013-01-03 00:33:00,38.0,37.0,30.15,North,0,0.0,0.0,97,0.00,,,0.08,,2013-01-03 05:33:00,
2013-01-03 00:42:00,38.0,37.0,30.15,North,0,0.0,0.0,97,0.00,,,0.08,,2013-01-03 05:42:00,
2013-01-03 00:52:00,38.0,37.0,30.15,North,0,0.0,0.0,97,0.00,,,0.08,,2013-01-03 05:52:00,
2013-01-03 01:03:00,38.0,37.0,30.14,North,0,0.0,0.0,97,0.00,,,0.07,,2013-01-03 06:03:00,
2013-01-03 01:12:00,38.0,37.0,30.14,North,0,0.0,0.0,97,0.00,,,0.07,,2013-01-03 06:12:00,
2013-01-03 01:22:00,38.0,37.0,30.14,North,0,0.0,0.0,98,0.00,,,0.07,,2013-01-03 06:22:00,
2013-01-03 01:33:00,38.0,37.0,30.14,North,0,0.0,0.0,97,0.00,,,0.07,,2013-01-03 06:33:00,
2013-01-03 01:42:00,38.0,37.0,30.14,North,0,0.0,0.0,97,0.00,,,0.07,,2013-01-03 06:42:00,
2013-01-03 01:52:00,38.0,37.0,30.12,North,0,0.0,0.0,97,0.00,,,0.07,,2013-01-03 06:52:00,
2013-01-03 02:02:00,38.0,37.0,30.13,North,0,0.0,0.0,97,0.00,,,0.06,,2013-01-03 07:02:00,
2013-01-03 02:12:00,38.0,37.0,30.13,North,0,0.0,0.0,97,0.00,,,0.06,,2013-01-03 07:12:00,
2013-01-03 02:22:00,38.0,37.0,30.14,North,0,0.0,0.0,97,0.00,,,0.06,,2013-01-03 07:22:00,
2013-01-03 02:33:00,38.0,37.0,30.15,North,0,0.0,0.0,97,0.00,,,0.06,,2013-01-03 07:33:00,
2013-01-03 02:42:00,38.0,37.0,30.15,North,0,0.0,0.0,97,0.00,,,0.06,,2013-01-03 07:42:00,
2013-01-03 02:52:00,38.0,37.0,30.15,North,0,0.0,0.0,97,0.00,,,0.06,,2013-01-03 07:52:00,
2013-01-03 03:02:00,38.0,37.0,30.16,North,0,0.0,0.0,98,0.00,,,0.06,,2013-01-03 08:02:00,
2013-01-03 03:12:00,38.0,37.0,30.16,North,0,0.0,0.0,98,0.00,,,0.06,,2013-01-03 08:12:00,
2013-01-03 03:22:00,38.0,37.0,30.16,North,0,0.0,0.0,98,0.00,,,0.06,,2013-01-03 08:22:00,
2013-01-03 03:33:00,38.0,37.0,30.15,North,0,0.0,0.0,97,0.00,,,0.05,,2013-01-03 08:33:00,
2013-01-03 03:42:00,38.0,37.0,30.15,North,0,0.0,0.0,97,0.00,,,0.05,,2013-01-03 08:42:00,
2013-01-03 03:53:00,39.0,38.0,30.15,North,0,0.0,0.0,97,0.00,,,0.05,,2013-01-03 08:53:00,
2013-01-03 04:03:00,39.0,38.0,30.14,North,0,0.0,0.0,97,0.00,,,0.05,,2013-01-03 09:03:00,
2013-01-03 04:12:00,39.0,38.0,30.14,North,0,0.0,0.0,97,0.00,,,0.05,,2013-01-03 09:12:00,
2013-01-03 04:22:00,39.0,38.0,30.14,North,0,0.0,0.0,97,0.00,,,0.05,,2013-01-03 09:22:00,
2013-01-03 04:33:00,39.0,38.0,30.14,North,0,0.0,0.0,97,0.00,,,0.05,,2013-01-03 09:33:00,
2013-01-03 04:43:00,39.0,38.0,30.14,North,0,0.0,0.0,97,0.00,,,0.05,,2013-01-03 09:43:00,
2013-01-03 04:52:00,39.0,38.0,30.14,North,0,0.0,0.0,97,0.00,,,0.05,,2013-01-03 09:52:00,
2013-01-03 05:02:00,39.0,38.0,30.14,North,0,0.0,0.0,97,0.00,,,0.04,,2013-01-03 10:02:00,
2013-01-03 05:12:00,39.0,38.0,30.14,North,0,0.0,0.0,97,0.00,,,0.04,,2013-01-03 10:12:00,
2013-01-03 05:22:00,39.0,38.0,30.14,North,0,0.0,0.0,98,0.00,,,0.04,,2013-01-03 10:22:00,
2013-01-03 05:33:00,39.0,38.0,30.14,North,0,0.0,0.0,97,0.00,,,0.04,,2013-01-03 10:33:00,
2013-01-03 05:42:00,39.0,38.0,30.14,North,0,0.0,0.0,97,0.00,,,0.04,,2013-01-03 10:42:00,
2013-01-03 05:52:00,39.0,38.0,30.14,North,0,0.0,0.0,97,0.00,,,0.04,,2013-01-03 10:52:00,
2013-01-03 06:02:00,39.0,38.0,30.16,North,0,0.0,0.0,97,0.00,,,0.04,,2013-01-03 11:02:00,
2013-01-03 06:12:00,39.0,38.0,30.16,North,0,0.0,0.0,97,0.00,,,0.04,,2013-01-03 11:12:00,
2013-01-03 06:23:00,39.0,38.0,30.16,North,0,0.0,0.0,97,0.00,,,0.04,,2013-01-03 11:23:00,
2013-01-03 06:33:00,39.0,38.0,30.15,North,0,0.0,2.0,97,0.00,,,0.04,,2013-01-03 11:33:00,
2013-01-03 06:43:00,39.0,38.0,30.15,North,0,0.0,2.0,97,0.00,,,0.04,,2013-01-03 11:43:00,
2013-01-03 06:53:00,39.0,38.0,30.15,North,0,0.0,2.0,97,0.00,,,0.04,,2013-01-03 11:53:00,
2013-01-03 07:03:00,39.0,38.0,30.15,North,0,0.0,0.0,97,0.00,,,0.04,,2013-01-03 12:03:00,
2013-01-03 07:12:00,39.0,38.0,30.15,North,0,0.0,0.0,97,0.00,,,0.04,,2013-01-03 12:12:00,
2013-01-03 07:22:00,39.0,38.0,30.17,North,0,0.0,0.0,97,0.00,,,0.04,,2013-01-03 12:22:00,
2013-01-03 07:33:00,39.0,38.0,30.18,North,0,0.0,0.0,97,0.00,,,0.03,,2013-01-03 12:33:00,
2013-01-03 07:42:00,39.0,38.0,30.18,North,0,0.0,0.0,97,0.00,,,0.03,,2013-01-03 12:42:00,
2013-01-03 07:52:00,39.0,38.0,30.18,North,0,0.0,0.0,97,0.00,,,0.03,,2013-01-03 12:52:00,
2013-01-03 08:02:00,39.0,38.0,30.18,North,0,0.0,0.0,97,0.00,,,0.03,,2013-01-03 13:02:00,
2013-01-03 08:13:00,39.0,38.0,30.18,North,0,0.0,0.0,97,0.00,,,0.03,,2013-01-03 13:13:00,
2013-01-03 08:22:00,39.0,38.0,30.17,North,0,0.0,0.0,97,0.00,,,0.03,,2013-01-03 13:22:00,
2013-01-03 08:33:00,39.0,38.0,30.17,North,0,0.0,0.0,97,0.00,,,0.03,,2013-01-03 13:33:00,
2013-01-03 08:42:00,39.0,38.0,30.17,North,0,0.0,0.0,97,0.00,,,0.03,,2013-01-03 13:42:00,
2013-01-03 08:52:00,39.0,38.0,30.17,North,0,0.0,0.0,97,0.00,,,0.03,,2013-01-03 13:52:00,
2013-01-03 09:03:00,39.0,38.0,30.18,North,0,0.0,0.0,96,0.00,,,0.03,,2013-01-03 14:03:00,
2013-01-03 09:12:00,39.0,38.0,30.18,North,0,0.0,0.0,96,0.00,,,0.03,,2013-01-03 14:12:00,
2013-01-03 09:23:00,39.0,38.0,30.18,North,0,0.0,0.0,96,0.00,,,0.03,,2013-01-03 14:23:00,
2013-01-03 09:33:00,39.0,37.0,30.19,North,0,0.0,3.0,93,0.00,,,0.03,,2013-01-03 14:33:00,
2013-01-03 09:42:00,39.0,37.0,30.19,North,0,0.0,3.0,93,0.00,,,0.03,,2013-01-03 14:42:00,
2013-01-03 09:53:00,39.0,37.0,30.20,North,0,0.0,0.0,93,0.00,,,0.03,,2013-01-03 14:53:00,
2013-01-03 10:03:00,39.0,37.0,30.19,North,0,0.0,0.0,93,0.00,,,0.03,,2013-01-03 15:03:00,
2013-01-03 10:12:00,39.0,37.0,30.19,North,0,0.0,0.0,93,0.00,,,0.03,,2013-01-03 15:12:00,
2013-01-03 10:23:00,39.0,37.0,30.19,North,0,0.0,0.0,93,0.00,,,0.03,,2013-01-03 15:23:00,
2013-01-03 10:33:00,40.0,38.0,30.20,North,0,0.0,0.0,91,0.00,,,0.02,,2013-01-03 15:33:00,
2013-01-03 10:43:00,40.0,38.0,30.20,North,0,0.0,0.0,91,0.00,,,0.02,,2013-01-03 15:43:00,
2013-01-03 10:53:00,40.0,38.0,30.20,North,0,0.0,0.0,91,0.00,,,0.02,,2013-01-03 15:53:00,
2013-01-03 11:03:00,40.0,36.0,30.21,SE,129,1.0,4.0,87,0.00,,,0.02,,2013-01-03 16:03:00,
2013-01-03 11:12:00,40.0,36.0,30.21,SE,129,1.0,4.0,87,0.00,,,0.02,,2013-01-03 16:12:00,
2013-01-03 11:23:00,41.0,37.0,30.20,ESE,114,1.0,3.0,86,0.00,,,0.02,,2013-01-03 16:23:00,
2013-01-03 11:33:00,41.0,37.0,30.19,SSE,156,1.0,5.0,85,0.00,,,0.02,,2013-01-03 16:33:00,
2013-01-03 11:43:00,41.0,37.0,30.19,SSE,156,1.0,5.0,85,0.00,,,0.02,,2013-01-03 16:43:00,
2013-01-03 11:53:00,41.0,37.0,30.18,North,0,0.0,5.0,84,0.01,,,0.03,,2013-01-03 16:53:00,
2013-01-03 12:03:00,41.0,37.0,30.18,North,0,0.0,5.0,84,0.01,,,0.03,,2013-01-03 17:03:00,
2013-01-03 12:13:00,41.0,37.0,30.18,North,0,0.0,5.0,84,0.01,,,0.03,,2013-01-03 17:13:00,
2013-01-03 12:23:00,41.0,36.0,30.17,North,0,0.0,3.0,83,0.01,,,0.03,,2013-01-03 17:23:00,
2013-01-03 12:33:00,42.0,38.0,30.16,North,0,0.0,4.0,84,0.01,,,0.03,,2013-01-03 17:33:00,
2013-01-03 12:43:00,42.0,38.0,30.16,North,0,0.0,4.0,84,0.01,,,0.03,,2013-01-03 17:43:00,
2013-01-03 12:53:00,42.0,37.0,30.15,South,174,1.0,8.0,83,0.00,,,0.03,,2013-01-03 17:53:00,
2013-01-03 13:03:00,42.0,37.0,30.14,SSE,162,2.0,7.0,82,0.00,,,0.03,,2013-01-03 18:03:00,
2013-01-03 13:13:00,42.0,37.0,30.14,SSE,162,2.0,7.0,82,0.00,,,0.03,,2013-01-03 18:13:00,
2013-01-03 13:22:00,43.0,38.0,30.13,North,0,0.0,5.0,81,0.00,,,0.03,,2013-01-03 18:22:00,
2013-01-03 13:33:00,43.0,37.0,30.13,South,173,1.0,4.0,80,0.00,,,0.03,,2013-01-03 18:33:00,
2013-01-03 13:43:00,43.0,37.0,30.13,South,173,1.0,4.0,80,0.00,,,0.03,,2013-01-03 18:43:00,
2013-01-03 13:53:00,43.0,37.0,30.13,South,173,1.0,4.0,80,0.00,,,0.03,,2013-01-03 18:53:00,
2013-01-03 14:03:00,43.0,36.0,30.14,North,0,0.0,3.0,77,0.00,,,0.03,,2013-01-03 19:03:00,
2013-01-03 14:12:00,43.0,36.0,30.14,North,0,0.0,3.0,77,0.00,,,0.03,,2013-01-03 19:12:00,
2013-01-03 14:56:00,44.0,38.0,30.14,North,0,0.0,0.0,78,0.00,,,0.02,,2013-01-03 19:56:00,
2013-01-03 15:03:00,43.0,38.0,30.13,North,0,0.0,4.0,82,0.00,,,0.02,,2013-01-03 20:03:00,
2013-01-03 15:13:00,43.0,38.0,30.13,North,0,0.0,4.0,82,0.00,,,0.02,,2013-01-03 20:13:00,
2013-01-03 15:22:00,42.0,38.0,30.14,North,0,0.0,2.0,84,0.00,,,0.02,,2013-01-03 20:22:00,
2013-01-03 15:33:00,42.0,38.0,30.14,North,0,0.0,2.0,84,0.00,,,0.02,,2013-01-03 20:33:00,
2013-01-03 15:35:00,42.0,38.0,30.15,North,0,0.0,3.0,84,0.00,,,0.02,,2013-01-03 20:35:00,
2013-01-03 15:42:00,42.0,38.0,30.14,North,0,0.0,2.0,84,0.00,,,0.02,,2013-01-03 20:42:00,
2013-01-03 15:53:00,42.0,38.0,30.15,North,0,0.0,3.0,84,0.00,,,0.02,,2013-01-03 20:53:00,
2013-01-03 16:02:00,42.0,38.0,30.15,North,0,0.0,3.0,84,0.00,,,0.02,,2013-01-03 21:02:00,
2013-01-03 16:13:00,42.0,38.0,30.15,North,0,0.0,3.0,84,0.00,,,0.02,,2013-01-03 21:13:00,
2013-01-03 16:23:00,42.0,38.0,30.15,North,0,0.0,3.0,84,0.00,,,0.02,,2013-01-03 21:23:00,
2013-01-03 16:53:00,42.0,38.0,30.17,North,0,0.0,0.0,87,0.00,,,0.02,,2013-01-03 21:53:00,
2013-01-03 17:03:00,42.0,38.0,30.17,North,0,0.0,0.0,87,0.00,,,0.02,,2013-01-03 22:03:00,
2013-01-03 17:12:00,42.0,38.0,30.17,North,0,0.0,0.0,87,0.00,,,0.02,,2013-01-03 22:12:00,
2013-01-03 17:22:00,41.0,37.0,30.18,North,0,0.0,0.0,87,0.00,,,0.02,,2013-01-03 22:22:00,
2013-01-03 17:33:00,41.0,38.0,30.18,North,0,0.0,0.0,88,0.00,,,0.02,,2013-01-03 22:33:00,
2013-01-03 17:42:00,41.0,38.0,30.18,North,0,0.0,0.0,88,0.00,,,0.02,,2013-01-03 22:42:00,
2013-01-03 17:52:00,41.0,38.0,30.18,North,0,0.0,0.0,89,0.00,,,0.02,,2013-01-03 22:52:00,
2013-01-03 18:03:00,41.0,38.0,30.19,North,0,0.0,0.0,90,0.00,,,0.02,,2013-01-03 23:03:00,
2013-01-03 18:12:00,41.0,38.0,30.19,North,0,0.0,0.0,90,0.00,,,0.02,,2013-01-03 23:12:00,
2013-01-03 18:22:00,41.0,38.0,30.19,North,0,0.0,0.0,90,0.00,,,0.02,,2013-01-03 23:22:00,
2013-01-03 18:33:00,41.0,38.0,30.18,North,0,0.0,0.0,90,0.00,,,0.02,,2013-01-03 23:33:00,
2013-01-03 18:43:00,41.0,38.0,30.18,North,0,0.0,0.0,90,0.00,,,0.02,,2013-01-03 23:43:00,
2013-01-03 18:52:00,40.0,38.0,30.19,North,0,0.0,0.0,91,0.00,,,0.02,,2013-01-03 23:52:00,
2013-01-03 19:03:00,39.0,37.0,30.19,North,0,0.0,0.0,92,0.00,,,0.02,,2013-01-04 00:03:00,
2013-01-03 19:12:00,39.0,37.0,30.19,North,0,0.0,0.0,92,0.00,,,0.02,,2013-01-04 00:12:00,
2013-01-03 19:22:00,38.0,36.0,30.20,North,0,0.0,0.0,93,0.00,,,0.02,,2013-01-04 00:22:00,
2013-01-03 19:33:00,37.0,35.0,30.21,North,0,0.0,0.0,93,0.00,,,0.02,,2013-01-04 00:33:00,
2013-01-03 19:42:00,37.0,35.0,30.21,North,0,0.0,0.0,93,0.00,,,0.02,,2013-01-04 00:42:00,
2013-01-03 19:52:00,36.0,34.0,30.21,North,0,0.0,0.0,93,0.00,,,0.02,,2013-01-04 00:52:00,
2013-01-03 20:02:00,35.0,33.0,30.20,North,0,0.0,0.0,94,0.00,,,0.02,,2013-01-04 01:02:00,
2013-01-03 20:12:00,35.0,33.0,30.20,North,0,0.0,0.0,94,0.00,,,0.02,,2013-01-04 01:12:00,
2013-01-03 20:22:00,35.0,33.0,30.21,North,0,0.0,0.0,94,0.00,,,0.02,,2013-01-04 01:22:00,
2013-01-03 20:33:00,33.0,31.0,30.21,North,0,0.0,0.0,94,0.00,,,0.02,,2013-01-04 01:33:00,
2013-01-03 20:42:00,33.0,31.0,30.21,North,0,0.0,0.0,94,0.00,,,0.02,,2013-01-04 01:42:00,
2013-01-03 20:52:00,33.0,31.0,30.21,North,0,0.0,0.0,94,0.00,,,0.02,,2013-01-04 01:52:00,
2013-01-03 21:02:00,33.0,31.0,30.21,North,0,0.0,0.0,94,0.00,,,0.02,,2013-01-04 02:02:00,
2013-01-03 21:12:00,33.0,31.0,30.21,North,0,0.0,0.0,94,0.00,,,0.02,,2013-01-04 02:12:00,
2013-01-03 21:22:00,32.0,31.0,30.21,North,0,0.0,0.0,95,0.00,,,0.02,,2013-01-04 02:22:00,
2013-01-03 21:33:00,31.0,30.0,30.22,North,0,0.0,0.0,95,0.00,,,0.02,,2013-01-04 02:33:00,
2013-01-03 21:42:00,31.0,30.0,30.22,North,0,0.0,0.0,95,0.00,,,0.02,,2013-01-04 02:42:00,
2013-01-03 21:52:00,30.0,29.0,30.22,North,0,0.0,0.0,95,0.00,,,0.02,,2013-01-04 02:52:00,
2013-01-03 22:03:00,30.0,29.0,30.22,North,0,0.0,0.0,95,0.00,,,0.02,,2013-01-04 03:03:00,
2013-01-03 22:12:00,30.0,29.0,30.22,North,0,0.0,0.0,95,0.00,,,0.02,,2013-01-04 03:12:00,
2013-01-03 22:22:00,30.0,29.0,30.23,North,0,0.0,0.0,95,0.00,,,0.02,,2013-01-04 03:22:00,
2013-01-03 22:32:00,29.0,28.0,30.23,North,0,0.0,0.0,96,0.00,,,0.02,,2013-01-04 03:32:00,
2013-01-03 22:42:00,29.0,28.0,30.23,North,0,0.0,0.0,96,0.00,,,0.02,,2013-01-04 03:42:00,
2013-01-03 22:52:00,29.0,28.0,30.23,North,0,0.0,0.0,96,0.00,,,0.01,,2013-01-04 03:52:00,
2013-01-03 23:02:00,29.0,28.0,30.22,North,0,0.0,0.0,96,0.00,,,0.01,,2013-01-04 04:02:00,
2013-01-03 23:12:00,29.0,28.0,30.22,North,0,0.0,0.0,96,0.00,,,0.01,,2013-01-04 04:12:00,
2013-01-03 23:22:00,29.0,28.0,30.23,North,0,0.0,0.0,96,0.00,,,0.01,,2013-01-04 04:22:00,
2013-01-03 23:32:00,28.0,27.0,30.23,North,0,0.0,0.0,96,0.00,,,0.01,,2013-01-04 04:32:00,
2013-01-03 23:42:00,28.0,27.0,30.23,North,0,0.0,0.0,96,0.00,,,0.01,,2013-01-04 04:42:00,
2013-01-03 23:52:00,28.0,27.0,30.23,North,0,0.0,0.0,96,0.00,,,0.01,,2013-01-04 04:52:00,